createdAt,value
2022-11-06T00:00:08.352Z,42.54
2022-11-06T00:02:59.018Z,42.83
2022-11-06T00:06:05.210Z,42.58
2022-11-06T00:08:53.733Z,42.50
2022-11-06T00:11:43.047Z,42.85
2022-11-06T00:14:31.519Z,42.84
2022-11-06T00:17:21.280Z,42.69
2022-11-06T00:20:10.741Z,42.64
2022-11-06T00:22:59.192Z,42.98
2022-11-06T00:25:47.760Z,42.90
2022-11-06T00:28:36.453Z,42.79
2022-11-06T00:31:27.864Z,43.15
2022-11-06T00:34:17.965Z,42.82
2022-11-06T00:37:06.610Z,42.96
2022-11-06T00:39:55.102Z,42.92
2022-11-06T00:42:43.616Z,43.10
2022-11-06T00:45:32.111Z,42.97
2022-11-06T00:48:20.616Z,43.08
2022-11-06T00:51:16.810Z,43.10
2022-11-06T00:54:07.607Z,43.01
2022-11-06T00:56:56.086Z,42.78
2022-11-06T00:59:44.647Z,43.10
2022-11-06T01:02:33.162Z,43.15
2022-11-06T01:05:21.934Z,43.17
2022-11-06T01:08:12.065Z,43.39
2022-11-06T01:11:00.638Z,42.74
2022-11-06T01:13:51.561Z,42.98
2022-11-06T01:16:40.590Z,42.86
2022-11-06T01:19:29.152Z,43.35
2022-11-06T01:22:17.987Z,43.01
2022-11-06T01:25:09.671Z,42.99
2022-11-06T01:27:58.126Z,42.98
2022-11-06T01:30:46.564Z,43.14
2022-11-06T01:33:35.153Z,42.94
2022-11-06T01:36:23.940Z,43.01
2022-11-06T01:39:14.556Z,43.44
2022-11-06T01:42:04.351Z,43.10
2022-11-06T01:45:17.130Z,43.14
2022-11-06T01:48:06.298Z,43.44
2022-11-06T01:50:57.292Z,43.34
2022-11-06T01:53:45.761Z,43.51
2022-11-06T01:56:34.444Z,43.29
2022-11-06T01:59:26.947Z,43.34
2022-11-06T02:02:16.830Z,43.28
2022-11-06T02:05:06.188Z,43.48
2022-11-06T02:07:55.101Z,43.17
2022-11-06T02:10:44.436Z,43.14
2022-11-06T02:13:39.334Z,43.55
2022-11-06T02:16:35.739Z,43.25
2022-11-06T02:19:41.331Z,43.35
2022-11-06T02:22:59.091Z,43.52
2022-11-06T02:25:51.700Z,43.16
2022-11-06T02:28:43.535Z,43.24
2022-11-06T02:31:33.679Z,43.59
2022-11-06T02:34:25.557Z,43.42
2022-11-06T02:37:16.350Z,43.49
2022-11-06T02:40:08.376Z,43.61
2022-11-06T02:42:57.975Z,43.51
2022-11-06T02:45:50.656Z,43.61
2022-11-06T02:48:44.538Z,43.29
2022-11-06T02:51:35.329Z,43.57
2022-11-06T02:54:24.776Z,43.33
2022-11-06T02:57:15.726Z,43.27
2022-11-06T03:00:08.988Z,43.66
2022-11-06T03:03:01.792Z,43.65
2022-11-06T03:05:54.749Z,43.29
2022-11-06T03:08:46.296Z,43.33
2022-11-06T03:11:38.940Z,43.54
2022-11-06T03:14:31.539Z,43.27
2022-11-06T03:17:22.522Z,43.54
2022-11-06T03:20:21.089Z,43.54
2022-11-06T03:23:14.608Z,43.45
2022-11-06T03:26:12.479Z,43.13
2022-11-06T03:29:04.575Z,43.19
2022-11-06T03:31:55.700Z,43.55
2022-11-06T03:34:51.443Z,43.71
2022-11-06T03:37:45.160Z,43.37
2022-11-06T03:40:36.509Z,43.61
2022-11-06T03:43:28.728Z,43.42
2022-11-06T03:46:20.865Z,43.88
2022-11-06T03:49:11.481Z,43.36
2022-11-06T03:52:01.979Z,43.59
2022-11-06T03:54:54.863Z,43.67
2022-11-06T03:57:46.156Z,43.43
2022-11-06T04:00:36.553Z,43.84
2022-11-06T04:03:27.504Z,43.59
2022-11-06T04:06:19.233Z,43.95
2022-11-06T04:09:27.895Z,43.87
2022-11-06T04:12:39.440Z,43.99
2022-11-06T04:15:28.547Z,43.90
2022-11-06T04:18:20.119Z,43.93
2022-11-06T04:21:25.797Z,43.71
2022-11-06T04:24:40.978Z,43.81
2022-11-06T04:27:40.283Z,43.76
2022-11-06T04:30:32.257Z,43.74
2022-11-06T04:33:24.457Z,43.60
2022-11-06T04:36:17.994Z,44.02
2022-11-06T04:39:10.683Z,43.98
2022-11-06T04:42:03.746Z,43.81
2022-11-06T04:44:57.118Z,43.78
2022-11-06T04:47:46.856Z,44.04
2022-11-06T04:50:38.366Z,43.61
2022-11-06T04:53:27.647Z,43.65
2022-11-06T04:56:25.671Z,43.98
2022-11-06T04:59:16.501Z,43.72
2022-11-06T05:02:07.179Z,43.85
2022-11-06T05:04:55.606Z,43.94
2022-11-06T05:07:44.151Z,44.12
2022-11-06T05:10:32.658Z,43.78
2022-11-06T05:13:21.058Z,43.76
2022-11-06T05:16:09.592Z,43.71
2022-11-06T05:18:59.442Z,43.89
2022-11-06T05:22:05.654Z,44.00
2022-11-06T05:24:54.152Z,43.90
2022-11-06T05:27:42.605Z,43.75
2022-11-06T05:30:30.991Z,43.63
2022-11-06T05:33:19.410Z,43.74
2022-11-06T05:36:10.042Z,43.72
2022-11-06T05:38:58.523Z,44.03
2022-11-06T05:41:47.092Z,43.72
2022-11-06T05:44:35.730Z,43.99
2022-11-06T05:47:24.384Z,43.84
2022-11-06T05:50:12.899Z,44.07
2022-11-06T05:53:02.879Z,43.91
2022-11-06T05:55:51.433Z,43.95
2022-11-06T05:58:39.879Z,44.00
2022-11-06T06:01:28.770Z,43.54
2022-11-06T06:04:17.485Z,43.86
2022-11-06T06:07:06.072Z,43.98
2022-11-06T06:09:55.832Z,43.83
2022-11-06T06:12:44.240Z,43.99
2022-11-06T06:15:32.977Z,43.94
2022-11-06T06:18:21.461Z,43.72
2022-11-06T06:21:09.966Z,43.84
2022-11-06T06:23:58.473Z,43.98
2022-11-06T06:26:48.333Z,44.12
2022-11-06T06:29:36.891Z,43.75
2022-11-06T06:32:25.411Z,44.08
2022-11-06T06:35:17.816Z,43.98
2022-11-06T06:38:06.361Z,43.88
2022-11-06T06:40:54.880Z,43.80
2022-11-06T06:43:44.694Z,43.96
2022-11-06T06:46:33.130Z,43.71
2022-11-06T06:49:21.672Z,43.49
2022-11-06T06:52:10.276Z,43.64
2022-11-06T06:54:58.883Z,44.09
2022-11-06T06:57:47.291Z,44.13
2022-11-06T07:00:37.221Z,44.00
2022-11-06T07:03:25.724Z,44.04
2022-11-06T07:06:14.313Z,44.26
2022-11-06T07:09:03.021Z,44.27
2022-11-06T07:11:51.676Z,44.42
2022-11-06T07:14:40.203Z,44.44
2022-11-06T07:17:30.335Z,44.21
2022-11-06T07:20:18.905Z,44.36
2022-11-06T07:23:09.216Z,43.99
2022-11-06T07:25:57.836Z,44.08
2022-11-06T07:28:46.316Z,44.15
2022-11-06T07:31:34.828Z,44.40
2022-11-06T07:34:24.800Z,44.48
2022-11-06T07:37:13.605Z,44.23
2022-11-06T07:40:02.186Z,44.52
2022-11-06T07:42:50.666Z,44.48
2022-11-06T07:45:42.831Z,44.36
2022-11-06T07:48:32.135Z,44.32
2022-11-06T07:51:21.935Z,44.41
2022-11-06T07:54:12.005Z,44.38
2022-11-06T07:57:00.485Z,43.96
2022-11-06T07:59:48.935Z,44.35
2022-11-06T08:02:37.530Z,44.00
2022-11-06T08:05:26.268Z,43.02
2022-11-06T08:08:16.392Z,43.25
2022-11-06T08:11:06.269Z,43.31
2022-11-06T08:13:54.738Z,42.55
2022-11-06T08:16:43.206Z,42.02
2022-11-06T08:19:31.967Z,41.59
2022-11-06T08:22:20.610Z,41.57
2022-11-06T08:25:11.290Z,41.20
2022-11-06T08:28:00.634Z,40.96
2022-11-06T08:30:49.166Z,40.69
2022-11-06T08:33:39.156Z,40.17
2022-11-06T08:36:27.574Z,40.13
2022-11-06T08:39:16.092Z,40.02
2022-11-06T08:42:07.077Z,40.20
2022-11-06T08:44:55.582Z,40.20
2022-11-06T08:47:43.931Z,40.04
2022-11-06T08:50:34.481Z,39.92
2022-11-06T08:53:23.058Z,39.99
2022-11-06T08:56:11.660Z,39.98
2022-11-06T08:59:01.442Z,39.60
2022-11-06T09:01:50.232Z,39.75
2022-11-06T09:04:41.487Z,39.71
2022-11-06T09:07:30.180Z,39.76
2022-11-06T09:10:18.753Z,39.53
2022-11-06T09:13:10.550Z,39.40
2022-11-06T09:16:01.377Z,39.58
2022-11-06T09:18:53.228Z,39.33
2022-11-06T09:21:41.953Z,39.50
2022-11-06T09:24:57.184Z,39.29
2022-11-06T09:27:45.421Z,39.33
2022-11-06T09:30:34.007Z,39.13
2022-11-06T09:33:24.104Z,39.12
2022-11-06T09:36:12.557Z,39.03
2022-11-06T09:39:01.119Z,38.51
2022-11-06T09:41:55.491Z,39.02
2022-11-06T09:44:53.890Z,39.01
2022-11-06T09:47:49.555Z,39.18
2022-11-06T09:50:43.902Z,39.28
2022-11-06T09:53:34.405Z,39.01
2022-11-06T09:56:25.424Z,38.78
2022-11-06T09:59:16.348Z,38.99
2022-11-06T10:02:17.581Z,38.80
2022-11-06T10:05:10.265Z,38.81
2022-11-06T10:08:01.653Z,39.15
2022-11-06T10:10:58.265Z,39.61
2022-11-06T10:13:55.639Z,39.03
2022-11-06T10:16:47.138Z,39.17
2022-11-06T10:19:45.424Z,39.18
2022-11-06T10:22:38.501Z,39.34
2022-11-06T10:25:41.673Z,39.67
2022-11-06T10:28:39.977Z,39.58
2022-11-06T10:31:33.732Z,39.62
2022-11-06T10:34:24.248Z,39.55
2022-11-06T10:37:15.211Z,37.65
2022-11-06T10:40:06.109Z,38.28
2022-11-06T10:43:01.126Z,38.37
2022-11-06T10:45:55.368Z,38.83
2022-11-06T10:48:48.642Z,38.70
2022-11-06T10:52:01.205Z,38.94
2022-11-06T10:54:58.833Z,38.79
2022-11-06T10:57:50.683Z,38.80
2022-11-06T11:00:40.795Z,38.84
2022-11-06T11:03:33.010Z,39.09
2022-11-06T11:06:21.868Z,38.62
2022-11-06T11:09:29.098Z,38.82
2022-11-06T11:12:22.968Z,38.65
2022-11-06T11:15:14.704Z,38.58
2022-11-06T11:18:18.623Z,38.61
2022-11-06T11:21:12.077Z,38.64
2022-11-06T11:24:08.397Z,38.66
2022-11-06T11:27:00.050Z,38.61
2022-11-06T11:29:50.008Z,38.30
2022-11-06T11:32:38.580Z,38.57
2022-11-06T11:35:29.879Z,38.71
2022-11-06T11:38:21.940Z,38.48
2022-11-06T11:41:13.954Z,39.16
2022-11-06T11:44:07.801Z,39.31
2022-11-06T11:46:56.809Z,39.50
2022-11-06T11:49:45.356Z,39.77
2022-11-06T11:52:35.164Z,39.57
2022-11-06T11:55:27.389Z,39.90
2022-11-06T11:58:27.948Z,39.71
2022-11-06T12:01:16.408Z,39.49
2022-11-06T12:04:11.090Z,39.61
2022-11-06T12:07:02.459Z,39.44
2022-11-06T12:09:52.538Z,39.37
2022-11-06T12:12:41.144Z,40.15
2022-11-06T12:15:31.892Z,39.61
2022-11-06T12:18:22.673Z,36.74
2022-11-06T12:21:16.131Z,34.63
2022-11-06T12:24:06.509Z,34.36
2022-11-06T12:26:59.430Z,34.13
2022-11-06T12:29:49.828Z,30.97
2022-11-06T12:32:45.815Z,29.33
2022-11-06T12:35:37.474Z,29.72
2022-11-06T12:38:30.221Z,29.94
2022-11-06T12:41:24.278Z,29.12
2022-11-06T12:44:15.266Z,29.16
2022-11-06T12:47:09.987Z,28.63
2022-11-06T12:50:29.120Z,28.47
2022-11-06T12:53:27.672Z,28.22
2022-11-06T12:56:20.403Z,28.26
2022-11-06T12:59:24.343Z,28.27
2022-11-06T13:02:24.002Z,28.52
2022-11-06T13:05:17.071Z,28.52
2022-11-06T13:08:15.883Z,28.26
2022-11-06T13:11:21.922Z,28.18
2022-11-06T13:14:20.653Z,28.07
2022-11-06T13:17:13.940Z,29.06
2022-11-06T13:20:05.650Z,29.19
2022-11-06T13:23:01.703Z,28.82
2022-11-06T13:25:54.770Z,28.82
2022-11-06T13:28:45.489Z,28.95
2022-11-06T13:31:40.440Z,29.53
2022-11-06T13:34:31.567Z,30.40
2022-11-06T13:37:21.679Z,31.01
2022-11-06T13:40:20.554Z,31.77
2022-11-06T13:43:17.038Z,32.85
2022-11-06T13:46:10.917Z,33.14
2022-11-06T13:49:10.059Z,33.08
2022-11-06T13:52:02.010Z,33.24
2022-11-06T13:55:02.169Z,33.60
2022-11-06T13:58:17.036Z,33.60
2022-11-06T14:01:14.938Z,34.66
2022-11-06T14:04:41.071Z,35.13
2022-11-06T14:07:31.078Z,35.04
2022-11-06T14:10:20.801Z,35.43
2022-11-06T14:13:09.302Z,34.75
2022-11-06T14:16:08.573Z,35.10
2022-11-06T14:18:59.230Z,35.30
2022-11-06T14:21:51.684Z,35.31
2022-11-06T14:24:41.500Z,35.38
2022-11-06T14:28:05.418Z,36.00
2022-11-06T14:34:03.279Z,35.93
2022-11-06T14:36:53.088Z,35.83
2022-11-06T14:40:04.405Z,36.45
2022-11-06T14:42:53.134Z,36.61
2022-11-06T14:45:51.809Z,36.07
2022-11-06T14:48:43.811Z,36.09
2022-11-06T14:51:32.510Z,36.30
2022-11-06T14:54:25.390Z,36.28
2022-11-06T14:57:17.530Z,36.19
2022-11-06T15:00:07.191Z,36.57
2022-11-06T15:02:56.881Z,36.69
2022-11-06T15:05:51.090Z,37.17
2022-11-06T15:09:02.515Z,36.97
2022-11-06T15:11:57.214Z,36.93
2022-11-06T15:14:59.220Z,37.29
2022-11-06T15:17:47.802Z,37.21
2022-11-06T15:20:36.365Z,37.58
2022-11-06T15:23:26.504Z,37.36
2022-11-06T15:26:23.659Z,37.12
2022-11-06T15:29:19.986Z,37.32
2022-11-06T15:32:13.043Z,36.90
2022-11-06T15:35:06.108Z,36.99
2022-11-06T15:37:56.358Z,37.05
2022-11-06T15:40:45.417Z,37.16
2022-11-06T15:43:37.443Z,36.87
2022-11-06T15:46:28.965Z,37.02
2022-11-06T15:49:19.778Z,37.19
2022-11-06T15:52:08.474Z,37.37
2022-11-06T15:54:57.082Z,37.18
2022-11-06T15:57:47.701Z,37.11
2022-11-06T16:00:37.907Z,37.28
2022-11-06T16:03:30.333Z,37.51
2022-11-06T16:06:19.234Z,37.24
2022-11-06T16:09:15.465Z,37.51
2022-11-06T16:12:04.217Z,38.35
2022-11-06T16:14:52.653Z,38.33
2022-11-06T16:17:46.051Z,38.30
2022-11-06T16:20:36.105Z,38.98
2022-11-06T16:23:37.595Z,38.83
2022-11-06T16:26:29.025Z,38.77
2022-11-06T16:29:20.811Z,39.05
2022-11-06T16:32:11.015Z,39.02
2022-11-06T16:35:00.136Z,39.01
2022-11-06T16:37:50.366Z,39.35
2022-11-06T16:40:52.587Z,39.06
2022-11-06T16:43:41.240Z,39.11
2022-11-06T16:47:11.932Z,39.36
2022-11-06T16:50:02.010Z,39.61
2022-11-06T16:52:55.282Z,39.33
2022-11-06T16:55:43.782Z,39.72
2022-11-06T16:58:33.989Z,39.90
2022-11-06T17:01:22.806Z,39.71
2022-11-06T17:04:15.391Z,39.89
2022-11-06T17:07:04.032Z,40.31
2022-11-06T17:09:55.349Z,40.29
2022-11-06T17:12:43.816Z,40.12
2022-11-06T17:15:32.386Z,40.64
2022-11-06T17:18:22.955Z,40.66
2022-11-06T17:21:14.794Z,40.46
2022-11-06T17:24:31.305Z,39.90
2022-11-06T17:27:13.308Z,40.45
2022-11-06T17:30:01.761Z,40.73
2022-11-06T17:32:50.194Z,40.49
2022-11-06T17:35:38.874Z,40.76
2022-11-06T17:38:27.390Z,40.56
2022-11-06T17:41:29.692Z,40.83
2022-11-06T17:44:20.031Z,40.84
2022-11-06T17:47:08.594Z,41.00
2022-11-06T17:49:56.952Z,41.32
2022-11-06T17:52:45.572Z,41.28
2022-11-06T17:55:34.039Z,41.39
2022-11-06T17:58:22.617Z,40.88
2022-11-06T18:01:12.654Z,41.13
2022-11-06T18:04:01.187Z,40.90
2022-11-06T18:06:50.968Z,41.11
2022-11-06T18:09:39.550Z,40.87
2022-11-06T18:12:28.864Z,41.41
2022-11-06T18:15:17.595Z,41.33
2022-11-06T18:18:07.644Z,41.56
2022-11-06T18:20:56.212Z,41.26
2022-11-06T18:23:44.716Z,41.46
2022-11-06T18:26:33.377Z,41.37
2022-11-06T18:29:22.145Z,41.37
2022-11-06T18:32:10.683Z,41.60
2022-11-06T18:35:01.116Z,41.40
2022-11-06T18:37:49.614Z,41.73
2022-11-06T18:40:39.771Z,41.40
2022-11-06T18:43:28.471Z,41.65
2022-11-06T18:46:18.785Z,41.79
2022-11-06T18:49:07.303Z,41.70
2022-11-06T18:51:57.113Z,41.78
2022-11-06T18:54:45.628Z,41.68
2022-11-06T18:57:34.178Z,41.63
2022-11-06T19:00:22.867Z,41.62
2022-11-06T19:03:11.842Z,41.53
2022-11-06T19:06:00.618Z,41.69
2022-11-06T19:08:50.623Z,41.44
2022-11-06T19:11:39.157Z,41.74
2022-11-06T19:14:27.650Z,41.63
2022-11-06T19:17:16.173Z,41.45
2022-11-06T19:20:05.613Z,41.51
2022-11-06T19:22:55.487Z,41.96
2022-11-06T19:25:47.914Z,41.78
2022-11-06T19:28:39.393Z,41.54
2022-11-06T19:31:29.450Z,41.75
2022-11-06T19:34:20.186Z,42.04
2022-11-06T19:37:08.673Z,41.93
2022-11-06T19:40:00.298Z,41.83
2022-11-06T19:42:54.551Z,41.65
2022-11-06T19:45:43.197Z,41.89
2022-11-06T19:48:32.193Z,41.59
2022-11-06T19:51:20.806Z,42.20
2022-11-06T19:54:09.598Z,42.06
2022-11-06T19:57:27.144Z,42.17
2022-11-06T20:00:11.469Z,41.72
2022-11-06T20:03:02.456Z,41.96
2022-11-06T20:05:51.289Z,42.22
2022-11-06T20:08:39.978Z,41.85
2022-11-06T20:11:28.505Z,42.14
2022-11-06T20:14:21.612Z,41.77
2022-11-06T20:17:11.448Z,41.94
2022-11-06T20:20:00.091Z,41.88
2022-11-06T20:22:49.130Z,42.28
2022-11-06T20:25:37.640Z,42.13
2022-11-06T20:28:26.318Z,41.79
2022-11-06T20:31:15.413Z,41.91
2022-11-06T20:34:05.533Z,41.98
2022-11-06T20:36:54.728Z,41.97
2022-11-06T20:39:43.252Z,41.93
2022-11-06T20:42:32.359Z,42.04
2022-11-06T20:45:20.848Z,41.79
2022-11-06T20:48:11.083Z,42.27
2022-11-06T20:51:01.661Z,42.11
2022-11-06T20:53:50.379Z,42.19
2022-11-06T20:56:38.925Z,42.06
2022-11-06T20:59:27.466Z,41.99
2022-11-06T21:02:16.334Z,42.17
2022-11-06T21:05:05.187Z,42.01
2022-11-06T21:07:55.118Z,41.97
2022-11-06T21:10:43.728Z,42.21
2022-11-06T21:13:33.272Z,42.37
2022-11-06T21:16:24.317Z,42.49
2022-11-06T21:19:12.828Z,42.45
2022-11-06T21:22:01.202Z,42.24
2022-11-06T21:24:50.926Z,42.12
2022-11-06T21:27:39.310Z,42.33
2022-11-06T21:30:27.761Z,42.00
2022-11-06T21:33:16.855Z,42.44
2022-11-06T21:36:06.618Z,42.31
2022-11-06T21:38:56.064Z,42.43
2022-11-06T21:41:46.189Z,42.46
2022-11-06T21:44:34.687Z,42.60
2022-11-06T21:47:23.101Z,42.67
2022-11-06T21:50:11.779Z,42.74
2022-11-06T21:53:17.796Z,42.79
2022-11-06T21:56:07.062Z,41.95
2022-11-06T21:58:58.684Z,41.79
2022-11-06T22:01:47.388Z,42.21
2022-11-06T22:04:35.973Z,42.07
2022-11-06T22:07:24.446Z,42.56
2022-11-06T22:10:13.002Z,42.85
2022-11-06T22:13:01.682Z,42.80
2022-11-06T22:15:51.411Z,42.90
2022-11-06T22:18:39.954Z,42.89
2022-11-06T22:21:29.976Z,43.04
2022-11-06T22:24:18.367Z,42.94
2022-11-06T22:27:06.845Z,43.19
2022-11-06T22:29:55.473Z,43.21
2022-11-06T22:32:45.440Z,43.22
2022-11-06T22:35:33.985Z,42.96
2022-11-06T22:38:22.362Z,43.03
2022-11-06T22:41:14.687Z,43.10
2022-11-06T22:44:03.380Z,43.05
2022-11-06T22:46:52.018Z,42.88
2022-11-06T22:49:41.769Z,43.20
2022-11-06T22:52:30.297Z,43.34
2022-11-06T22:55:18.983Z,43.41
2022-11-06T22:58:07.592Z,43.18
2022-11-06T23:00:57.235Z,43.32
2022-11-06T23:03:45.727Z,43.31
2022-11-06T23:06:35.854Z,43.33
2022-11-06T23:09:24.410Z,43.45
2022-11-06T23:12:13.796Z,43.73
2022-11-06T23:15:02.516Z,43.14
2022-11-06T23:17:51.122Z,43.34
2022-11-06T23:20:39.661Z,43.23
2022-11-06T23:23:29.543Z,43.13
2022-11-06T23:26:19.897Z,43.42
2022-11-06T23:29:08.866Z,43.27
2022-11-06T23:31:57.379Z,43.06
2022-11-06T23:34:45.921Z,43.39
2022-11-06T23:37:34.571Z,43.39
2022-11-06T23:40:24.413Z,43.39
2022-11-06T23:43:13.102Z,43.34
2022-11-06T23:46:00.787Z,43.47
2022-11-06T23:48:49.294Z,43.40
2022-11-06T23:51:37.806Z,43.08
2022-11-06T23:54:26.562Z,43.26
2022-11-06T23:57:16.463Z,42.95
